sensor_id;sensor_type;location;lat;lon;timestamp;pressure;altitude;pressure_sealevel;temperature;humidity
26915;BME280;14480;52.608;13.416;2023-07-09T11:52:17;147218.09;;;13.14;48.93
26915;BME280;14480;52.608;13.416;2023-07-09T11:57:23;147220.59;;;13.15;49.11
26915;BME280;14480;52.608;13.416;2023-07-09T12:02:26;147226.88;;;13.18;48.10
26915;BME280;14480;52.608;13.416;2023-07-09T12:07:35;147254.59;;;13.29;47.86
26915;BME280;14480;52.608;13.416;2023-07-09T12:12:41;147270.94;;;13.36;48.15
26915;BME280;14480;52.608;13.416;2023-07-09T12:17:52;147303.63;;;13.49;47.83
26915;BME280;14480;52.608;13.416;2023-07-09T12:22:57;147320.00;;;13.56;49.91
26915;BME280;14480;52.608;13.416;2023-07-09T12:28:03;147293.59;;;13.45;48.59
26915;BME280;14480;52.608;13.416;2023-07-09T12:33:07;147292.34;;;13.45;46.10
26915;BME280;14480;52.608;13.416;2023-07-09T12:38:17;147409.28;;;13.92;47.47
26915;BME280;14480;52.608;13.416;2023-07-09T12:43:23;147362.72;;;13.73;46.06
26915;BME280;14480;52.608;13.416;2023-07-09T12:48:28;147420.56;;;13.96;46.70
26915;BME280;14480;52.608;13.416;2023-07-09T12:53:35;147396.66;;;13.87;45.75
26915;BME280;14480;52.608;13.416;2023-07-09T12:58:39;147385.38;;;13.82;46.56
26915;BME280;14480;52.608;13.416;2023-07-09T13:03:52;147376.59;;;13.79;45.87
26915;BME280;14480;52.608;13.416;2023-07-09T13:08:59;147435.69;;;14.02;46.31
26915;BME280;14480;52.608;13.416;2023-07-09T13:14:03;147455.78;;;14.11;45.17
26915;BME280;14480;52.608;13.416;2023-07-09T13:19:07;147420.56;;;13.96;45.07
26915;BME280;14480;52.608;13.416;2023-07-09T13:24:22;147460.84;;;14.13;46.11
26915;BME280;14480;52.608;13.416;2023-07-09T13:29:26;147480.94;;;14.21;45.77
26915;BME280;14480;52.608;13.416;2023-07-09T13:34:30;147473.41;;;14.18;45.58
26915;BME280;14480;52.608;13.416;2023-07-09T13:39:39;147474.66;;;14.18;46.34
26915;BME280;14480;52.608;13.416;2023-07-09T13:44:43;147475.91;;;14.19;46.47
26915;BME280;14480;52.608;13.416;2023-07-09T13:49:47;147458.28;;;14.12;45.12
26915;BME280;14480;52.608;13.416;2023-07-09T13:54:52;147436.94;;;14.03;45.01
26915;BME280;14480;52.608;13.416;2023-07-09T13:59:58;147465.88;;;14.15;45.11
26915;BME280;14480;52.608;13.416;2023-07-09T14:05:04;147511.13;;;14.33;45.37
26915;BME280;14480;52.608;13.416;2023-07-09T14:10:12;147492.28;;;14.25;45.02
26915;BME280;14480;52.608;13.416;2023-07-09T14:15:17;147553.97;;;14.50;46.24
26915;BME280;14480;52.608;13.416;2023-07-09T14:20:21;147516.16;;;14.35;45.66
26915;BME280;14480;52.608;13.416;2023-07-09T14:25:26;147526.25;;;14.39;44.39
26915;BME280;14480;52.608;13.416;2023-07-09T14:30:30;147552.72;;;14.50;44.77
26915;BME280;14480;52.608;13.416;2023-07-09T14:35:34;147522.50;;;14.38;45.03
26915;BME280;14480;52.608;13.416;2023-07-09T14:40:39;147513.66;;;14.34;46.17
26915;BME280;14480;52.608;13.416;2023-07-09T14:45:45;147586.69;;;14.64;45.06
26915;BME280;14480;52.608;13.416;2023-07-09T14:50:48;147576.66;;;14.59;44.95
26915;BME280;14480;52.608;13.416;2023-07-09T14:55:53;147546.44;;;14.47;44.81
26915;BME280;14480;52.608;13.416;2023-07-09T15:00:57;147541.38;;;14.45;44.57
26915;BME280;14480;52.608;13.416;2023-07-09T15:06:00;147537.56;;;14.44;45.58
26915;BME280;14480;52.608;13.416;2023-07-09T15:11:07;147548.97;;;14.48;45.35
26915;BME280;14480;52.608;13.416;2023-07-09T15:16:14;147610.63;;;14.73;45.41
26915;BME280;14480;52.608;13.416;2023-07-09T15:21:17;147605.59;;;14.71;45.55
26915;BME280;14480;52.608;13.416;2023-07-09T15:26:22;147530.03;;;14.41;45.94
26915;BME280;14480;52.608;13.416;2023-07-09T15:31:26;147502.34;;;14.29;44.73
26915;BME280;14480;52.608;13.416;2023-07-09T15:36:29;147485.97;;;14.23;45.51
26915;BME280;14480;52.608;13.416;2023-07-09T15:41:35;147440.72;;;14.05;45.09
26915;BME280;14480;52.608;13.416;2023-07-09T15:46:41;147473.41;;;14.18;45.29
26915;BME280;14480;52.608;13.416;2023-07-09T15:51:45;147473.41;;;14.18;46.23
26915;BME280;14480;52.608;13.416;2023-07-09T15:56:50;147479.69;;;14.20;46.59
26915;BME280;14480;52.608;13.416;2023-07-09T16:01:55;147474.66;;;14.18;45.71
26915;BME280;14480;52.608;13.416;2023-07-09T16:06:58;147478.44;;;14.20;46.19
26915;BME280;14480;52.608;13.416;2023-07-09T16:12:04;147454.53;;;14.10;46.82
26915;BME280;14480;52.608;13.416;2023-07-09T16:17:10;147478.44;;;14.20;46.68
26915;BME280;14480;52.608;13.416;2023-07-09T16:22:14;147447.00;;;14.07;46.85
26915;BME280;14480;52.608;13.416;2023-07-09T16:27:22;147428.09;;;13.99;46.42
26915;BME280;14480;52.608;13.416;2023-07-09T16:32:26;147414.31;;;13.94;47.11
26915;BME280;14480;52.608;13.416;2023-07-09T16:37:29;147357.72;;;13.71;47.13
26915;BME280;14480;52.608;13.416;2023-07-09T16:42:34;147323.75;;;13.57;48.15
26915;BME280;14480;52.608;13.416;2023-07-09T16:47:37;147288.56;;;13.43;49.51
26915;BME280;14480;52.608;13.416;2023-07-09T16:52:43;147252.06;;;13.28;50.20
26915;BME280;14480;52.608;13.416;2023-07-09T16:57:50;147223.13;;;13.17;50.30
26915;BME280;14480;52.608;13.416;2023-07-09T17:02:58;147177.88;;;12.98;51.15
26915;BME280;14480;52.608;13.416;2023-07-09T17:08:05;147159.03;;;12.91;51.48
26915;BME280;14480;52.608;13.416;2023-07-09T17:13:11;147116.28;;;12.73;51.19
26915;BME280;14480;52.608;13.416;2023-07-09T17:18:18;147078.59;;;12.58;51.25
26915;BME280;14480;52.608;13.416;2023-07-09T17:23:24;147040.91;;;12.43;51.93
26915;BME280;14480;52.608;13.416;2023-07-09T17:28:32;146996.91;;;12.25;51.60
26915;BME280;14480;52.608;13.416;2023-07-09T17:33:35;146989.41;;;12.22;51.97
26915;BME280;14480;52.608;13.416;2023-07-09T17:38:39;146940.41;;;12.02;52.44
26915;BME280;14480;52.608;13.416;2023-07-09T17:43:44;146924.09;;;11.95;52.28
26915;BME280;14480;52.608;13.416;2023-07-09T17:48:48;146909.00;;;11.89;52.25
26915;BME280;14480;52.608;13.416;2023-07-09T17:53:51;146875.06;;;11.76;52.42
26915;BME280;14480;52.608;13.416;2023-07-09T17:58:58;146846.19;;;11.64;53.13
26915;BME280;14480;52.608;13.416;2023-07-09T18:04:02;146829.81;;;11.57;53.59
26915;BME280;14480;52.608;13.416;2023-07-09T18:09:05;146809.78;;;11.49;53.57
26915;BME280;14480;52.608;13.416;2023-07-09T18:14:20;146777.13;;;11.36;54.56
26915;BME280;14480;52.608;13.416;2023-07-09T18:19:25;146731.94;;;11.18;54.64
26915;BME280;14480;52.608;13.416;2023-07-09T18:24:29;146696.78;;;11.03;54.75
26915;BME280;14480;52.608;13.416;2023-07-09T18:29:34;146655.34;;;10.87;54.92
26915;BME280;14480;52.608;13.416;2023-07-09T18:34:39;146611.47;;;10.69;55.80
26915;BME280;14480;52.608;13.416;2023-07-09T18:39:42;146573.84;;;10.54;55.77
26915;BME280;14480;52.608;13.416;2023-07-09T18:44:47;146536.16;;;10.38;56.02
26915;BME280;14480;52.608;13.416;2023-07-09T18:49:53;146492.25;;;10.20;56.48
26915;BME280;14480;52.608;13.416;2023-07-09T18:54:59;146472.16;;;10.12;56.76
26915;BME280;14480;52.608;13.416;2023-07-09T19:00:04;146427.00;;;9.94;57.74
26915;BME280;14480;52.608;13.416;2023-07-09T19:05:09;146370.56;;;9.71;58.49
26915;BME280;14480;52.608;13.416;2023-07-09T19:10:19;146312.91;;;9.48;59.87
26915;BME280;14480;52.608;13.416;2023-07-09T19:15:24;146290.38;;;9.39;60.06
26915;BME280;14480;52.608;13.416;2023-07-09T19:20:28;146243.97;;;9.20;60.84
26915;BME280;14480;52.608;13.416;2023-07-09T19:25:31;146211.38;;;9.06;61.51
26915;BME280;14480;52.608;13.416;2023-07-09T19:30:39;146166.25;;;8.88;62.39
26915;BME280;14480;52.608;13.416;2023-07-09T19:35:43;146131.19;;;8.74;62.74
26915;BME280;14480;52.608;13.416;2023-07-09T19:40:46;146097.38;;;8.60;63.21
26915;BME280;14480;52.608;13.416;2023-07-09T19:45:51;146078.56;;;8.53;63.56
26915;BME280;14480;52.608;13.416;2023-07-09T19:50:54;146029.66;;;8.33;64.34
26915;BME280;14480;52.608;13.416;2023-07-09T19:55:57;146002.09;;;8.22;64.28
26915;BME280;14480;52.608;13.416;2023-07-09T20:01:02;145987.09;;;8.15;64.29
26915;BME280;14480;52.608;13.416;2023-07-09T20:06:07;145948.28;;;8.00;65.24
26915;BME280;14480;52.608;13.416;2023-07-09T20:11:13;145908.19;;;7.83;65.94
26915;BME280;14480;52.608;13.416;2023-07-09T20:16:25;145884.38;;;7.74;65.90
26915;BME280;14480;52.608;13.416;2023-07-09T20:21:28;145864.41;;;7.66;65.33
26915;BME280;14480;52.608;13.416;2023-07-09T20:26:32;145839.34;;;7.55;64.11
26915;BME280;14480;52.608;13.416;2023-07-09T20:31:37;145840.59;;;7.56;63.52
26915;BME280;14480;52.608;13.416;2023-07-09T20:36:40;145835.59;;;7.54;63.82
26915;BME280;14480;52.608;13.416;2023-07-09T20:41:46;145806.81;;;7.42;64.03
26915;BME280;14480;52.608;13.416;2023-07-09T20:46:51;145798.03;;;7.39;63.55
26915;BME280;14480;52.608;13.416;2023-07-09T20:51:55;145779.28;;;7.31;64.14
26915;BME280;14480;52.608;13.416;2023-07-09T20:56:59;145756.75;;;7.22;64.61
26915;BME280;14480;52.608;13.416;2023-07-09T21:02:09;145726.72;;;7.10;64.78
26915;BME280;14480;52.608;13.416;2023-07-09T21:07:19;145696.69;;;6.97;65.36
26915;BME280;14480;52.608;13.416;2023-07-09T21:12:22;145666.66;;;6.85;65.95
26915;BME280;14480;52.608;13.416;2023-07-09T21:17:27;145639.13;;;6.74;67.13
26915;BME280;14480;52.608;13.416;2023-07-09T21:22:31;145606.63;;;6.61;66.32
26915;BME280;14480;52.608;13.416;2023-07-09T21:27:34;145584.09;;;6.52;66.80
26915;BME280;14480;52.608;13.416;2023-07-09T21:32:41;145571.56;;;6.47;66.89
